Weather History for Oakland, MD

Change the Weather History Date:

Monday, April 1, 2013

  Actual Average (KMGW) Record (KMGW)
Temperature  
Mean Temperature 34 °F 48 °F  
Max Temperature 39 °F 58 °F 84 °F (1986)
Min Temperature 28 °F 37 °F 20 °F (1964)
Degree Days  
Heating Degree Days 32 17  
Month to date heating degree days 17  
Since 1 July heating degree days 4618  
Cooling Degree Days 0 0  
Month to date cooling degree days 0  
Year to date cooling degree days 2  
Moisture  
Dew Point 29 °F    
Average Humidity 85    
Maximum Humidity 100    
Minimum Humidity 44    
Precipitation  
Precipitation 0.00 in 0.12 in 1.16 in (2007)
Month to date precipitation 0.12  
Year to date precipitation 9.18  
Sea Level Pressure  
Sea Level Pressure 29.80 in    
Wind  
Wind Speed 12 mph (West)    
Max Wind Speed 17 mph    
Max Gust Speed 29 mph    
Visibility 7 miles    
Events Fog    
T = Trace of Precipitation, MM = Missing Value Source: NWS Daily Summary

Daily Weather History Graph

Daily Weather History Graph

Search for Another Location

Airport:

Trip Planner

Search our weather history database for the weather conditions in past years. The results will help you decide how hot, cold, wet, or windy it might be!

Date:

Astronomy

Apr. 01, 2013 Rise Set
Actual Time 7:01 AM EDT 7:41 PM EDT
Civil Twilight 6:34 AM EDT 8:08 PM EDT
Nautical Twilight 6:02 AM EDT 8:40 PM EDT
Astronomical Twilight 5:29 AM EDT 9:14 PM EDT
Moon 12:47 AM EDT 10:47 AM EDT
Length of Visible Light 13h 34m
Length of Day
12h 40m
Waning Gibbous, 67% of the Moon is Illuminated
Apr 1
Waning Gibbous
Apr 3
Last Quarter
Apr 10
New
Apr 18
First Quarter
Apr 25
Full

Hourly Weather History & Observations

Time (EDT) Temp. Windchill Dew Point Humidity Pressure Visibility Wind Dir Wind Speed Gust Speed Precip Events Conditions
12:15 AM 37.4 °F 28.9 °F 37.4 °F 100% 29.74 in 10.0 mi West 13.8 mph 19.6 mph N/A   Overcast
12:55 AM 37.4 °F 30.3 °F 37.4 °F 100% 29.74 in 10.0 mi WSW 10.4 mph 20.7 mph N/A   Mostly Cloudy
1:15 AM 37.4 °F 30.3 °F 37.4 °F 100% 29.74 in 10.0 mi WSW 10.4 mph 23.0 mph N/A   Overcast
1:35 AM 37.4 °F 28.9 °F 37.4 °F 100% 29.74 in 10.0 mi WSW 13.8 mph 19.6 mph N/A   Overcast
1:55 AM 37.4 °F 29.8 °F 37.4 °F 100% 29.75 in 10.0 mi WSW 11.5 mph 17.3 mph N/A   Overcast
2:15 AM 37.4 °F 28.5 °F 37.4 °F 100% 29.74 in 10.0 mi WSW 15.0 mph 19.6 mph N/A   Overcast
2:35 AM 37.4 °F 29.3 °F 37.4 °F 100% 29.74 in 10.0 mi WSW 12.7 mph 19.6 mph N/A   Overcast
2:55 AM 37.4 °F 29.8 °F 37.4 °F 100% 29.74 in 10.0 mi WSW 11.5 mph 19.6 mph N/A   Overcast
3:15 AM 37.4 °F 30.3 °F 37.4 °F 100% 29.73 in 10.0 mi SW 10.4 mph 19.6 mph N/A   Overcast
3:35 AM 37.4 °F 30.3 °F 37.4 °F 100% 29.73 in 10.0 mi WSW 10.4 mph - N/A   Overcast
4:15 AM 39.2 °F 31.2 °F 39.2 °F 100% 29.72 in 5.0 mi West 13.8 mph 24.2 mph N/A   Overcast
4:35 AM 37.4 °F 27.8 °F 37.4 °F 100% 29.71 in 5.0 mi WSW 17.3 mph 23.0 mph N/A   Overcast
4:55 AM 39.2 °F 31.2 °F 39.2 °F 100% 29.71 in 7.0 mi WSW 13.8 mph 24.2 mph N/A   Overcast
5:15 AM 39.2 °F 31.2 °F 39.2 °F 100% 29.71 in 7.0 mi West 13.8 mph 26.5 mph N/A   Overcast
5:35 AM 39.2 °F 31.6 °F 39.2 °F 100% 29.71 in 7.0 mi West 12.7 mph 28.8 mph N/A   Overcast
6:15 AM 37.4 °F 29.8 °F 37.4 °F 100% 29.71 in 7.0 mi WSW 11.5 mph 24.2 mph N/A   Overcast
6:55 AM 37.4 °F 29.3 °F 37.4 °F 100% 29.71 in 7.0 mi West 12.7 mph 26.5 mph N/A   Overcast
7:15 AM 37.4 °F 28.9 °F 37.4 °F 100% 29.72 in 7.0 mi West 13.8 mph 25.3 mph N/A   Overcast
7:35 AM 37.4 °F 29.8 °F 37.4 °F 100% 29.73 in 7.0 mi West 11.5 mph 23.0 mph N/A   Overcast
7:55 AM 37.4 °F 28.9 °F 37.4 °F 100% 29.74 in 7.0 mi West 13.8 mph 24.2 mph N/A   Overcast
8:15 AM 37.4 °F 28.5 °F 37.4 °F 100% 29.75 in 10.0 mi West 15.0 mph 23.0 mph N/A   Overcast
8:35 AM 37.4 °F 28.5 °F 37.4 °F 100% 29.75 in 10.0 mi West 15.0 mph 26.5 mph N/A   Overcast
8:55 AM 37.4 °F 28.2 °F 37.4 °F 100% 29.76 in 10.0 mi West 16.1 mph 27.6 mph N/A   Mostly Cloudy
9:15 AM 39.2 °F 31.6 °F 33.8 °F 81% 29.75 in 10.0 mi West 12.7 mph 21.9 mph N/A   Scattered Clouds
9:35 AM 37.4 °F 29.8 °F 33.8 °F 87% 29.75 in 10.0 mi West 11.5 mph 20.7 mph N/A   Overcast
9:55 AM 37.4 °F 28.9 °F 33.8 °F 87% 29.75 in 10.0 mi WNW 13.8 mph 23.0 mph N/A   Overcast
10:15 AM 35.6 °F 27.5 °F 33.8 °F 93% 29.76 in 10.0 mi WNW 11.5 mph 20.7 mph N/A   Overcast
10:35 AM 35.6 °F 27.5 °F 33.8 °F 93% 29.77 in 7.0 mi West 11.5 mph 18.4 mph N/A   Overcast
10:55 AM 32.0 °F 24.8 °F 32.0 °F 100% 29.78 in 1.0 mi NW 8.1 mph 19.6 mph N/A   Overcast
11:15 AM 32.0 °F 24.8 °F 32.0 °F 100% 29.79 in 0.5 mi WNW 8.1 mph 18.4 mph N/A Fog Fog
11:35 AM 32.0 °F 24.8 °F 32.0 °F 100% 29.79 in 0.5 mi WNW 8.1 mph 17.3 mph N/A Fog Fog
11:55 AM 32.0 °F 24.8 °F 32.0 °F 100% 29.80 in 0.2 mi WNW 8.1 mph - N/A Fog Light Freezing Fog
12:15 PM 32.0 °F 22.5 °F 32.0 °F 100% 29.81 in 0.5 mi WNW 12.7 mph 20.7 mph N/A Fog Light Freezing Fog
12:35 PM 32.0 °F 24.2 °F 32.0 °F 100% 29.81 in 0.8 mi West 9.2 mph 21.9 mph N/A   Mostly Cloudy
12:55 PM 32.0 °F 24.2 °F 32.0 °F 100% 29.81 in 1.0 mi West 9.2 mph 19.6 mph N/A   Mostly Cloudy
1:15 PM 30.2 °F 21.3 °F 30.2 °F 100% 29.81 in 0.5 mi WNW 10.4 mph 21.9 mph N/A Fog Light Freezing Fog
1:35 PM 32.0 °F 23.0 °F 32.0 °F 100% 29.82 in 3.0 mi West 11.5 mph 23.0 mph N/A   Mist
1:55 PM 32.0 °F 23.0 °F 32.0 °F 100% 29.81 in 4.0 mi West 11.5 mph 23.0 mph N/A   Mostly Cloudy
2:15 PM 32.0 °F 22.1 °F 30.2 °F 93% 29.82 in 7.0 mi West 13.8 mph 20.7 mph N/A   Overcast
2:35 PM 30.2 °F 19.8 °F 30.2 °F 100% 29.82 in 1.0 mi WNW 13.8 mph 23.0 mph N/A   Overcast
2:55 PM 30.2 °F 20.8 °F 30.2 °F 100% 29.83 in 1.2 mi NW 11.5 mph 20.7 mph N/A   Overcast
3:15 PM 30.2 °F 21.3 °F 30.2 °F 100% 29.83 in 1.0 mi WNW 10.4 mph 19.6 mph N/A   Overcast
3:35 PM 30.2 °F 21.9 °F 30.2 °F 100% 29.84 in 3.0 mi West 9.2 mph - N/A   Overcast
3:55 PM 32.0 °F 24.2 °F 32.0 °F 100% 29.83 in 1.5 mi West 9.2 mph 17.3 mph N/A   Overcast
4:15 PM 32.0 °F 22.1 °F 28.4 °F 87% 29.83 in 10.0 mi West 13.8 mph 21.9 mph N/A   Overcast
4:35 PM 30.2 °F 21.3 °F 30.2 °F 100% 29.83 in 0.2 mi West 10.4 mph 17.3 mph N/A Fog Light Freezing Fog
4:55 PM 32.0 °F 23.6 °F 28.4 °F 87% 29.83 in 10.0 mi WSW 10.4 mph - N/A   Mostly Cloudy
5:15 PM 32.0 °F 24.8 °F 26.6 °F 80% 29.83 in 10.0 mi West 8.1 mph 17.3 mph N/A   Mostly Cloudy
5:35 PM 32.0 °F 25.6 °F 23.0 °F 69% 29.84 in 10.0 mi WNW 6.9 mph 17.3 mph N/A   Overcast
5:55 PM 32.0 °F 24.2 °F 19.4 °F 60% 29.84 in 10.0 mi West 9.2 mph 19.6 mph N/A   Overcast
6:15 PM 32.0 °F 21.6 °F 17.6 °F 55% 29.84 in 10.0 mi West 15.0 mph 23.0 mph N/A   Overcast
6:35 PM 32.0 °F 25.6 °F 17.6 °F 55% 29.85 in 10.0 mi NW 6.9 mph 26.5 mph N/A   Mostly Cloudy
6:55 PM 32.0 °F 23.0 °F 14.0 °F 48% 29.85 in 10.0 mi WNW 11.5 mph 20.7 mph N/A   Mostly Cloudy
7:15 PM 32.0 °F 25.6 °F 14.0 °F 48% 29.85 in 10.0 mi WNW 6.9 mph 17.3 mph N/A   Scattered Clouds
7:55 PM 32.0 °F 26.4 °F 12.2 °F 44% 29.86 in 10.0 mi WNW 5.8 mph 18.4 mph N/A   Scattered Clouds
8:15 PM 32.0 °F 25.6 °F 14.0 °F 48% 29.87 in 10.0 mi WNW 6.9 mph - N/A   Scattered Clouds
8:35 PM 30.2 °F 22.6 °F 14.0 °F 51% 29.88 in 10.0 mi NW 8.1 mph - N/A   Scattered Clouds
8:55 PM 30.2 °F 23.4 °F 14.0 °F 51% 29.89 in 10.0 mi WNW 6.9 mph 16.1 mph N/A   Scattered Clouds
9:15 PM 30.2 °F 21.3 °F 12.2 °F 47% 29.90 in 10.0 mi WNW 10.4 mph 17.3 mph N/A   Clear
9:35 PM 30.2 °F 21.3 °F 12.2 °F 47% 29.90 in 10.0 mi WNW 10.4 mph 19.6 mph N/A   Scattered Clouds
9:55 PM 28.4 °F 19.1 °F 12.2 °F 51% 29.91 in 10.0 mi WNW 10.4 mph 18.4 mph N/A   Clear
10:15 PM 28.4 °F 19.1 °F 12.2 °F 51% 29.91 in 10.0 mi WNW 10.4 mph 17.3 mph N/A   Clear
10:55 PM 28.4 °F 19.1 °F 12.2 °F 51% 29.92 in 10.0 mi WNW 10.4 mph 17.3 mph N/A   Clear
11:15 PM 28.4 °F 19.7 °F 12.2 °F 51% 29.91 in 10.0 mi WNW 9.2 mph 16.1 mph N/A   Scattered Clouds
11:35 PM 28.4 °F 19.1 °F 12.2 °F 51% 29.91 in 10.0 mi West 10.4 mph 17.3 mph N/A   Mostly Cloudy
11:55 PM 28.4 °F 19.1 °F 12.2 °F 51% 29.91 in 10.0 mi WNW 10.4 mph 19.6 mph N/A   Mostly Cloudy